This is the latest recevied weather packets stored in our database for station/object KC4JIR. If no packets are shown the sender has not sent any weather packets the latest 1 day(s).
| Time | Temp. | Humidity | Pressure | Rain* | Wind** | Luminosity | Snow |
|---|---|---|---|---|---|---|---|
| 1836274832 | 22.78° C | 88% | 1015.1 hPa | 0 mm | 0 m/s | 0 W/m² | - |
| 1836274530 | 22.78° C | 88% | 1015.3 hPa | 0 mm | 0 m/s | 0 W/m² | - |
| 1836274384 | 22.78° C | 88% | 1014.9 hPa | 0 mm | 0 m/s | 0 W/m² | - |
| 1836274228 | 22.78° C | 88% | 1014.9 hPa | 0 mm | 0 m/s | 0 W/m² | - |
| 1836273923 | 22.78° C | 88% | 1014.8 hPa | 0 mm | 0 m/s | 0 W/m² | - |
| 1778067201 | 16.11° C | 96% | 1012.8 hPa | 0 mm | 0 m/s | 22 W/m² | - |
| 1778066897 | 16.11° C | 97% | 1012.7 hPa | 0 mm | 0 m/s | 26 W/m² | - |
| 1778066595 | 16.11° C | 96% | 1013 hPa | 0 mm | 0 m/s | 21 W/m² | - |
| 1778066292 | 16.11° C | 97% | 1012.7 hPa | 0 mm | 0 m/s | 13 W/m² | - |
| 1778065990 | 16.11° C | 97% | 1012.7 hPa | 0 mm | 0 m/s | 8 W/m² | - |
| 1778065687 | 15.56° C | 96% | 1012.4 hPa | 0 mm | 0 m/s | 5 W/m² | - |
| 1778065384 | 15.56° C | 96% | 1012.5 hPa | 0 mm | 0 m/s | 4 W/m² | - |
| 1778065080 | 15.56° C | 96% | 1012.2 hPa | 0 mm | 0 m/s | 4 W/m² | - |
| 1778064777 | 15.56° C | 96% | 1012.2 hPa | 0 mm | 0 m/s | 3 W/m² | - |
| 1778064475 | 15.56° C | 96% | 1011.8 hPa | 0 mm | 0 m/s | 0 W/m² | - |
| 1778064173 | 15.56° C | 96% | 1011.7 hPa | 0 mm | 0 m/s | 0 W/m² | - |
| 1778063871 | 15.56° C | 96% | 1011.8 hPa | 0 mm | 0 m/s | 0 W/m² | - |
| 1778063567 | 15.56° C | 96% | 1012 hPa | 0 mm | 0 m/s | 0 W/m² | - |
| 1778063265 | 15.56° C | 96% | 1012 hPa | 0 mm | 0 m/s | 0 W/m² | - |
| 1778062963 | 15.56° C | 96% | 1011.9 hPa | 0 mm | 0 m/s | 0 W/m² | - |
| 1778062659 | 15.56° C | 96% | 1011.7 hPa | 0 mm | 0 m/s | 0 W/m² | - |
| 1778062356 | 15.56° C | 96% | 1011.7 hPa | 0 mm | 0 m/s | 0 W/m² | - |
| 1778062054 | 15.56° C | 96% | 1011.7 hPa | 0 mm | 0 m/s | 0 W/m² | - |
| 1778061752 | 15.56° C | 97% | 1011.8 hPa | 0 mm | 0 m/s | 0 W/m² | - |
| 1778061450 | 15.56° C | 97% | 1011.9 hPa | 0 mm | 0 m/s | 0 W/m² | - |
* Rain latest hour (hover to see other rain measurements)
** Current wind speed in m/s (hover to see current wind gust speed)